sensor_id;sensor_type;location;lat;lon;timestamp;P1;durP1;ratioP1;P2;durP2;ratioP2
64615;SDS011;51027;42.162;24.754;2023-07-24T03:30:29;28.75;;;13.68;;
64615;SDS011;51027;42.162;24.754;2023-07-24T03:32:55;32.50;;;15.63;;
64615;SDS011;51027;42.162;24.754;2023-07-24T03:35:20;32.30;;;14.80;;
64615;SDS011;51027;42.162;24.754;2023-07-24T03:37:46;34.40;;;15.95;;
64615;SDS011;51027;42.162;24.754;2023-07-24T03:40:11;33.45;;;15.52;;
64615;SDS011;51027;42.162;24.754;2023-07-24T03:42:37;34.10;;;16.00;;
64615;SDS011;51027;42.162;24.754;2023-07-24T03:45:03;32.40;;;15.65;;
64615;SDS011;51027;42.162;24.754;2023-07-24T03:47:28;29.85;;;14.55;;
64615;SDS011;51027;42.162;24.754;2023-07-24T03:49:54;30.70;;;15.45;;
64615;SDS011;51027;42.162;24.754;2023-07-24T03:52:20;28.98;;;14.38;;
64615;SDS011;51027;42.162;24.754;2023-07-24T03:54:45;27.55;;;14.07;;
64615;SDS011;51027;42.162;24.754;2023-07-24T03:57:11;26.10;;;13.30;;
64615;SDS011;51027;42.162;24.754;2023-07-24T03:59:37;27.38;;;13.18;;
64615;SDS011;51027;42.162;24.754;2023-07-24T04:02:03;26.75;;;12.73;;
64615;SDS011;51027;42.162;24.754;2023-07-24T04:04:29;25.48;;;12.95;;
64615;SDS011;51027;42.162;24.754;2023-07-24T04:06:54;29.15;;;12.98;;
64615;SDS011;51027;42.162;24.754;2023-07-24T04:09:19;24.00;;;11.55;;
64615;SDS011;51027;42.162;24.754;2023-07-24T04:11:45;24.27;;;11.98;;
64615;SDS011;51027;42.162;24.754;2023-07-24T04:14:10;23.40;;;11.00;;
64615;SDS011;51027;42.162;24.754;2023-07-24T04:16:36;23.52;;;11.30;;
64615;SDS011;51027;42.162;24.754;2023-07-24T04:19:02;30.85;;;19.13;;
64615;SDS011;51027;42.162;24.754;2023-07-24T04:21:27;24.63;;;11.65;;
64615;SDS011;51027;42.162;24.754;2023-07-24T04:23:53;24.02;;;12.38;;
64615;SDS011;51027;42.162;24.754;2023-07-24T04:26:18;24.75;;;12.02;;
64615;SDS011;51027;42.162;24.754;2023-07-24T04:28:44;26.45;;;10.93;;
64615;SDS011;51027;42.162;24.754;2023-07-24T04:31:09;24.65;;;10.70;;
64615;SDS011;51027;42.162;24.754;2023-07-24T04:33:34;23.45;;;11.63;;
64615;SDS011;51027;42.162;24.754;2023-07-24T04:36:00;21.48;;;10.00;;
64615;SDS011;51027;42.162;24.754;2023-07-24T04:38:25;22.08;;;10.38;;
64615;SDS011;51027;42.162;24.754;2023-07-24T04:40:51;24.90;;;11.15;;
64615;SDS011;51027;42.162;24.754;2023-07-24T04:43:16;22.80;;;11.13;;
64615;SDS011;51027;42.162;24.754;2023-07-24T04:45:42;25.08;;;11.13;;
64615;SDS011;51027;42.162;24.754;2023-07-24T04:48:07;24.05;;;11.60;;
64615;SDS011;51027;42.162;24.754;2023-07-24T04:50:32;25.83;;;12.77;;
64615;SDS011;51027;42.162;24.754;2023-07-24T04:52:58;26.67;;;13.18;;
64615;SDS011;51027;42.162;24.754;2023-07-24T04:55:24;24.70;;;10.77;;
64615;SDS011;51027;42.162;24.754;2023-07-24T04:57:49;23.83;;;10.82;;
64615;SDS011;51027;42.162;24.754;2023-07-24T05:00:15;26.15;;;12.20;;
64615;SDS011;51027;42.162;24.754;2023-07-24T05:02:40;24.90;;;11.98;;
64615;SDS011;51027;42.162;24.754;2023-07-24T05:05:06;27.40;;;12.63;;
64615;SDS011;51027;42.162;24.754;2023-07-24T05:07:32;28.77;;;13.40;;
64615;SDS011;51027;42.162;24.754;2023-07-24T05:09:57;27.20;;;14.32;;
64615;SDS011;51027;42.162;24.754;2023-07-24T05:12:23;26.85;;;14.23;;
64615;SDS011;51027;42.162;24.754;2023-07-24T05:14:48;25.95;;;13.68;;
64615;SDS011;51027;42.162;24.754;2023-07-24T05:17:14;36.38;;;13.75;;
64615;SDS011;51027;42.162;24.754;2023-07-24T05:19:40;28.90;;;14.07;;
64615;SDS011;51027;42.162;24.754;2023-07-24T05:22:05;38.83;;;14.95;;
64615;SDS011;51027;42.162;24.754;2023-07-24T05:24:31;27.15;;;14.52;;
64615;SDS011;51027;42.162;24.754;2023-07-24T05:26:56;28.20;;;14.18;;
64615;SDS011;51027;42.162;24.754;2023-07-24T05:29:21;26.92;;;14.75;;
64615;SDS011;51027;42.162;24.754;2023-07-24T05:31:47;25.25;;;13.48;;
64615;SDS011;51027;42.162;24.754;2023-07-24T05:34:12;37.28;;;16.90;;
64615;SDS011;51027;42.162;24.754;2023-07-24T05:36:38;27.42;;;14.32;;
64615;SDS011;51027;42.162;24.754;2023-07-24T05:39:05;26.10;;;13.73;;
64615;SDS011;51027;42.162;24.754;2023-07-24T05:41:30;29.55;;;15.68;;
64615;SDS011;51027;42.162;24.754;2023-07-24T05:43:55;31.17;;;16.55;;
64615;SDS011;51027;42.162;24.754;2023-07-24T05:46:21;30.38;;;15.52;;
64615;SDS011;51027;42.162;24.754;2023-07-24T05:48:47;30.65;;;15.77;;
64615;SDS011;51027;42.162;24.754;2023-07-24T05:51:12;37.05;;;16.50;;
64615;SDS011;51027;42.162;24.754;2023-07-24T05:53:38;35.60;;;15.93;;
64615;SDS011;51027;42.162;24.754;2023-07-24T05:56:03;27.92;;;15.68;;
64615;SDS011;51027;42.162;24.754;2023-07-24T05:58:29;27.83;;;14.43;;
64615;SDS011;51027;42.162;24.754;2023-07-24T06:00:54;29.75;;;14.43;;
64615;SDS011;51027;42.162;24.754;2023-07-24T06:03:23;30.50;;;14.85;;
64615;SDS011;51027;42.162;24.754;2023-07-24T06:05:55;28.70;;;14.65;;
64615;SDS011;51027;42.162;24.754;2023-07-24T06:08:20;29.88;;;15.48;;
64615;SDS011;51027;42.162;24.754;2023-07-24T06:10:47;29.38;;;15.35;;
64615;SDS011;51027;42.162;24.754;2023-07-24T06:13:14;26.02;;;13.95;;
64615;SDS011;51027;42.162;24.754;2023-07-24T06:15:40;28.50;;;15.50;;
64615;SDS011;51027;42.162;24.754;2023-07-24T06:18:05;29.73;;;15.07;;
64615;SDS011;51027;42.162;24.754;2023-07-24T06:20:30;33.20;;;16.90;;
64615;SDS011;51027;42.162;24.754;2023-07-24T06:22:56;29.35;;;14.82;;
64615;SDS011;51027;42.162;24.754;2023-07-24T06:25:21;28.70;;;14.15;;
64615;SDS011;51027;42.162;24.754;2023-07-24T06:27:47;28.20;;;15.13;;
64615;SDS011;51027;42.162;24.754;2023-07-24T06:30:12;30.85;;;15.35;;
64615;SDS011;51027;42.162;24.754;2023-07-24T06:32:38;27.95;;;14.73;;
64615;SDS011;51027;42.162;24.754;2023-07-24T06:35:03;31.52;;;15.57;;
64615;SDS011;51027;42.162;24.754;2023-07-24T06:37:29;28.17;;;15.00;;
64615;SDS011;51027;42.162;24.754;2023-07-24T06:39:54;27.70;;;15.27;;
64615;SDS011;51027;42.162;24.754;2023-07-24T06:42:20;31.70;;;14.98;;
64615;SDS011;51027;42.162;24.754;2023-07-24T06:44:45;28.10;;;14.27;;
64615;SDS011;51027;42.162;24.754;2023-07-24T06:47:10;28.63;;;15.40;;
64615;SDS011;51027;42.162;24.754;2023-07-24T06:49:36;28.65;;;14.98;;
64615;SDS011;51027;42.162;24.754;2023-07-24T06:52:01;29.40;;;15.35;;
64615;SDS011;51027;42.162;24.754;2023-07-24T06:54:27;27.85;;;14.77;;
64615;SDS011;51027;42.162;24.754;2023-07-24T06:56:52;27.05;;;14.18;;
64615;SDS011;51027;42.162;24.754;2023-07-24T06:59:18;28.02;;;13.60;;
64615;SDS011;51027;42.162;24.754;2023-07-24T07:01:43;30.17;;;14.18;;
64615;SDS011;51027;42.162;24.754;2023-07-24T07:04:08;28.67;;;14.77;;
64615;SDS011;51027;42.162;24.754;2023-07-24T07:06:34;28.58;;;13.60;;
64615;SDS011;51027;42.162;24.754;2023-07-24T07:08:59;32.38;;;16.42;;
64615;SDS011;51027;42.162;24.754;2023-07-24T07:11:25;27.58;;;14.77;;
64615;SDS011;51027;42.162;24.754;2023-07-24T07:13:50;24.95;;;13.52;;
64615;SDS011;51027;42.162;24.754;2023-07-24T07:16:15;27.85;;;14.18;;
64615;SDS011;51027;42.162;24.754;2023-07-24T07:18:41;25.63;;;14.23;;
64615;SDS011;51027;42.162;24.754;2023-07-24T07:21:07;25.67;;;14.43;;
64615;SDS011;51027;42.162;24.754;2023-07-24T07:23:32;27.05;;;14.05;;
64615;SDS011;51027;42.162;24.754;2023-07-24T07:25:58;28.40;;;14.45;;
64615;SDS011;51027;42.162;24.754;2023-07-24T07:28:23;28.58;;;14.57;;
64615;SDS011;51027;42.162;24.754;2023-07-24T07:30:49;26.98;;;14.68;;
64615;SDS011;51027;42.162;24.754;2023-07-24T07:33:14;24.88;;;13.80;;
64615;SDS011;51027;42.162;24.754;2023-07-24T07:35:39;25.73;;;14.68;;
64615;SDS011;51027;42.162;24.754;2023-07-24T07:38:05;24.55;;;13.75;;
64615;SDS011;51027;42.162;24.754;2023-07-24T07:40:30;25.20;;;13.35;;
64615;SDS011;51027;42.162;24.754;2023-07-24T07:42:56;29.25;;;14.48;;
64615;SDS011;51027;42.162;24.754;2023-07-24T07:45:22;25.60;;;13.88;;
64615;SDS011;51027;42.162;24.754;2023-07-24T07:47:48;29.80;;;14.98;;
64615;SDS011;51027;42.162;24.754;2023-07-24T07:50:14;29.88;;;14.85;;
64615;SDS011;51027;42.162;24.754;2023-07-24T07:52:39;25.83;;;13.88;;
64615;SDS011;51027;42.162;24.754;2023-07-24T07:55:05;26.02;;;13.65;;
64615;SDS011;51027;42.162;24.754;2023-07-24T07:57:31;26.67;;;14.20;;
64615;SDS011;51027;42.162;24.754;2023-07-24T07:59:59;26.88;;;14.02;;
64615;SDS011;51027;42.162;24.754;2023-07-24T08:02:24;25.40;;;15.13;;
64615;SDS011;51027;42.162;24.754;2023-07-24T08:04:49;28.95;;;14.73;;
64615;SDS011;51027;42.162;24.754;2023-07-24T08:07:15;27.95;;;15.02;;
64615;SDS011;51027;42.162;24.754;2023-07-24T08:09:40;24.77;;;13.50;;
64615;SDS011;51027;42.162;24.754;2023-07-24T08:12:06;28.13;;;14.18;;
64615;SDS011;51027;42.162;24.754;2023-07-24T08:14:32;26.17;;;14.15;;
64615;SDS011;51027;42.162;24.754;2023-07-24T08:16:57;25.90;;;13.20;;
64615;SDS011;51027;42.162;24.754;2023-07-24T08:19:23;46.05;;;15.98;;
64615;SDS011;51027;42.162;24.754;2023-07-24T08:21:48;28.38;;;15.43;;
64615;SDS011;51027;42.162;24.754;2023-07-24T08:24:14;29.42;;;13.02;;
64615;SDS011;51027;42.162;24.754;2023-07-24T08:26:39;26.27;;;13.93;;
64615;SDS011;51027;42.162;24.754;2023-07-24T08:29:05;24.65;;;14.27;;
64615;SDS011;51027;42.162;24.754;2023-07-24T08:31:30;25.65;;;14.40;;
64615;SDS011;51027;42.162;24.754;2023-07-24T08:33:55;27.08;;;14.63;;
64615;SDS011;51027;42.162;24.754;2023-07-24T08:36:21;27.48;;;15.15;;
64615;SDS011;51027;42.162;24.754;2023-07-24T08:38:46;25.05;;;14.00;;
64615;SDS011;51027;42.162;24.754;2023-07-24T08:41:13;26.48;;;14.45;;
64615;SDS011;51027;42.162;24.754;2023-07-24T08:43:40;25.65;;;14.07;;
64615;SDS011;51027;42.162;24.754;2023-07-24T08:46:08;25.35;;;14.35;;
64615;SDS011;51027;42.162;24.754;2023-07-24T08:48:35;25.42;;;13.20;;
64615;SDS011;51027;42.162;24.754;2023-07-24T08:51:03;28.67;;;13.35;;
64615;SDS011;51027;42.162;24.754;2023-07-24T08:53:29;24.65;;;13.45;;
64615;SDS011;51027;42.162;24.754;2023-07-24T08:55:56;23.40;;;13.60;;
64615;SDS011;51027;42.162;24.754;2023-07-24T08:58:22;23.90;;;12.93;;
64615;SDS011;51027;42.162;24.754;2023-07-24T09:00:48;23.92;;;13.43;;
64615;SDS011;51027;42.162;24.754;2023-07-24T09:03:13;25.17;;;13.30;;
64615;SDS011;51027;42.162;24.754;2023-07-24T09:05:39;24.83;;;13.40;;
64615;SDS011;51027;42.162;24.754;2023-07-24T09:08:04;27.00;;;14.65;;
64615;SDS011;51027;42.162;24.754;2023-07-24T09:10:30;25.23;;;13.57;;
64615;SDS011;51027;42.162;24.754;2023-07-24T09:12:55;24.45;;;13.70;;
64615;SDS011;51027;42.162;24.754;2023-07-24T09:15:21;25.83;;;13.60;;
64615;SDS011;51027;42.162;24.754;2023-07-24T09:17:49;25.08;;;13.85;;
64615;SDS011;51027;42.162;24.754;2023-07-24T09:20:16;23.92;;;12.70;;
64615;SDS011;51027;42.162;24.754;2023-07-24T09:22:50;24.25;;;13.55;;
64615;SDS011;51027;42.162;24.754;2023-07-24T09:25:17;25.25;;;13.45;;
64615;SDS011;51027;42.162;24.754;2023-07-24T09:27:43;24.95;;;13.27;;
64615;SDS011;51027;42.162;24.754;2023-07-24T09:30:13;21.88;;;12.48;;
64615;SDS011;51027;42.162;24.754;2023-07-24T09:32:39;26.88;;;13.85;;
64615;SDS011;51027;42.162;24.754;2023-07-24T09:35:15;26.40;;;13.23;;
64615;SDS011;51027;42.162;24.754;2023-07-24T09:37:43;23.55;;;13.13;;
64615;SDS011;51027;42.162;24.754;2023-07-24T09:40:09;25.00;;;12.88;;
64615;SDS011;51027;42.162;24.754;2023-07-24T09:42:36;22.00;;;11.80;;
64615;SDS011;51027;42.162;24.754;2023-07-24T09:45:03;23.15;;;11.68;;
64615;SDS011;51027;42.162;24.754;2023-07-24T09:47:30;24.55;;;11.73;;
64615;SDS011;51027;42.162;24.754;2023-07-24T09:49:56;21.45;;;11.48;;
64615;SDS011;51027;42.162;24.754;2023-07-24T09:52:22;20.75;;;10.30;;
64615;SDS011;51027;42.162;24.754;2023-07-24T09:57:27;21.75;;;11.90;;
64615;SDS011;51027;42.162;24.754;2023-07-24T09:59:54;21.05;;;11.05;;
64615;SDS011;51027;42.162;24.754;2023-07-24T10:02:21;23.27;;;11.10;;
64615;SDS011;51027;42.162;24.754;2023-07-24T10:04:47;23.75;;;11.65;;
64615;SDS011;51027;42.162;24.754;2023-07-24T10:07:14;25.90;;;11.20;;
64615;SDS011;51027;42.162;24.754;2023-07-24T10:09:41;20.98;;;10.57;;
64615;SDS011;51027;42.162;24.754;2023-07-24T10:12:08;23.52;;;10.68;;
64615;SDS011;51027;42.162;24.754;2023-07-24T10:14:34;22.88;;;11.15;;
64615;SDS011;51027;42.162;24.754;2023-07-24T10:17:01;21.67;;;10.80;;
64615;SDS011;51027;42.162;24.754;2023-07-24T10:19:36;23.80;;;11.27;;
64615;SDS011;51027;42.162;24.754;2023-07-24T10:22:05;20.30;;;10.70;;
64615;SDS011;51027;42.162;24.754;2023-07-24T10:24:30;22.65;;;11.88;;
64615;SDS011;51027;42.162;24.754;2023-07-24T10:26:57;21.23;;;10.70;;
64615;SDS011;51027;42.162;24.754;2023-07-24T10:29:25;19.42;;;9.77;;
64615;SDS011;51027;42.162;24.754;2023-07-24T10:31:54;23.05;;;11.45;;
64615;SDS011;51027;42.162;24.754;2023-07-24T10:34:23;21.65;;;11.20;;
64615;SDS011;51027;42.162;24.754;2023-07-24T10:36:48;23.38;;;12.10;;
64615;SDS011;51027;42.162;24.754;2023-07-24T10:39:15;20.80;;;11.25;;
64615;SDS011;51027;42.162;24.754;2023-07-24T10:41:43;22.10;;;10.38;;
64615;SDS011;51027;42.162;24.754;2023-07-24T10:44:11;20.88;;;11.65;;
64615;SDS011;51027;42.162;24.754;2023-07-24T10:46:40;25.90;;;11.85;;
64615;SDS011;51027;42.162;24.754;2023-07-24T10:49:08;22.70;;;11.88;;
64615;SDS011;51027;42.162;24.754;2023-07-24T10:51:37;24.80;;;12.50;;
64615;SDS011;51027;42.162;24.754;2023-07-24T10:54:20;21.00;;;10.85;;
64615;SDS011;51027;42.162;24.754;2023-07-24T10:56:48;21.95;;;10.57;;
64615;SDS011;51027;42.162;24.754;2023-07-24T10:59:13;23.77;;;11.82;;
64615;SDS011;51027;42.162;24.754;2023-07-24T11:01:39;21.75;;;11.32;;
64615;SDS011;51027;42.162;24.754;2023-07-24T11:04:05;24.63;;;12.50;;
64615;SDS011;51027;42.162;24.754;2023-07-24T11:06:41;21.90;;;12.65;;
64615;SDS011;51027;42.162;24.754;2023-07-24T11:09:08;23.65;;;11.40;;
64615;SDS011;51027;42.162;24.754;2023-07-24T11:11:34;22.00;;;10.68;;
64615;SDS011;51027;42.162;24.754;2023-07-24T11:14:03;21.20;;;11.00;;
64615;SDS011;51027;42.162;24.754;2023-07-24T11:16:29;24.52;;;12.43;;
64615;SDS011;51027;42.162;24.754;2023-07-24T11:18:58;23.95;;;13.07;;
64615;SDS011;51027;42.162;24.754;2023-07-24T11:21:24;25.25;;;13.63;;
64615;SDS011;51027;42.162;24.754;2023-07-24T11:23:50;23.33;;;12.85;;
64615;SDS011;51027;42.162;24.754;2023-07-24T11:26:23;23.13;;;12.50;;
64615;SDS011;51027;42.162;24.754;2023-07-24T11:28:51;20.70;;;11.95;;
64615;SDS011;51027;42.162;24.754;2023-07-24T11:31:17;22.48;;;12.07;;
64615;SDS011;51027;42.162;24.754;2023-07-24T11:33:45;24.30;;;11.27;;
64615;SDS011;51027;42.162;24.754;2023-07-24T11:36:12;24.23;;;11.60;;
64615;SDS011;51027;42.162;24.754;2023-07-24T11:38:39;22.55;;;12.10;;
64615;SDS011;51027;42.162;24.754;2023-07-24T11:41:04;20.10;;;10.88;;
64615;SDS011;51027;42.162;24.754;2023-07-24T11:43:30;21.08;;;11.35;;
64615;SDS011;51027;42.162;24.754;2023-07-24T11:45:55;22.20;;;12.70;;
64615;SDS011;51027;42.162;24.754;2023-07-24T11:48:30;22.13;;;11.45;;
64615;SDS011;51027;42.162;24.754;2023-07-24T11:54:11;21.45;;;10.77;;
64615;SDS011;51027;42.162;24.754;2023-07-24T11:56:40;23.85;;;11.68;;
64615;SDS011;51027;42.162;24.754;2023-07-24T11:59:10;19.65;;;10.27;;
64615;SDS011;51027;42.162;24.754;2023-07-24T12:01:47;20.05;;;10.75;;
64615;SDS011;51027;42.162;24.754;2023-07-24T12:04:19;20.05;;;10.10;;
64615;SDS011;51027;42.162;24.754;2023-07-24T12:06:45;19.67;;;10.25;;
64615;SDS011;51027;42.162;24.754;2023-07-24T12:09:11;22.00;;;10.93;;
64615;SDS011;51027;42.162;24.754;2023-07-24T12:11:41;19.52;;;10.25;;
64615;SDS011;51027;42.162;24.754;2023-07-24T12:14:10;20.27;;;10.48;;
64615;SDS011;51027;42.162;24.754;2023-07-24T12:16:36;21.10;;;10.30;;
64615;SDS011;51027;42.162;24.754;2023-07-24T12:19:02;17.92;;;8.90;;
64615;SDS011;51027;42.162;24.754;2023-07-24T12:21:27;19.48;;;10.02;;
64615;SDS011;51027;42.162;24.754;2023-07-24T12:23:53;19.58;;;9.60;;
64615;SDS011;51027;42.162;24.754;2023-07-24T12:26:18;19.67;;;9.82;;
64615;SDS011;51027;42.162;24.754;2023-07-24T12:28:44;20.75;;;9.93;;
64615;SDS011;51027;42.162;24.754;2023-07-24T12:31:09;19.58;;;8.82;;
64615;SDS011;51027;42.162;24.754;2023-07-24T12:33:35;19.98;;;9.32;;
64615;SDS011;51027;42.162;24.754;2023-07-24T12:36:00;19.83;;;10.20;;
64615;SDS011;51027;42.162;24.754;2023-07-24T12:38:26;19.80;;;9.10;;
64615;SDS011;51027;42.162;24.754;2023-07-24T12:40:52;20.00;;;9.90;;
64615;SDS011;51027;42.162;24.754;2023-07-24T12:43:18;20.67;;;9.45;;
64615;SDS011;51027;42.162;24.754;2023-07-24T12:45:43;20.17;;;10.23;;
64615;SDS011;51027;42.162;24.754;2023-07-24T12:48:09;19.48;;;9.52;;
64615;SDS011;51027;42.162;24.754;2023-07-24T12:50:34;20.25;;;10.05;;
64615;SDS011;51027;42.162;24.754;2023-07-24T12:53:00;20.90;;;9.63;;
64615;SDS011;51027;42.162;24.754;2023-07-24T12:55:25;19.95;;;9.52;;
64615;SDS011;51027;42.162;24.754;2023-07-24T12:57:52;18.98;;;9.05;;
64615;SDS011;51027;42.162;24.754;2023-07-24T13:00:17;20.40;;;9.50;;
64615;SDS011;51027;42.162;24.754;2023-07-24T13:02:43;20.65;;;9.60;;
64615;SDS011;51027;42.162;24.754;2023-07-24T13:05:08;18.73;;;9.80;;
64615;SDS011;51027;42.162;24.754;2023-07-24T13:07:34;19.65;;;9.25;;
64615;SDS011;51027;42.162;24.754;2023-07-24T13:09:59;19.52;;;9.43;;
64615;SDS011;51027;42.162;24.754;2023-07-24T13:12:25;18.33;;;8.48;;
64615;SDS011;51027;42.162;24.754;2023-07-24T13:14:50;17.83;;;8.60;;
64615;SDS011;51027;42.162;24.754;2023-07-24T13:17:16;18.70;;;8.73;;
64615;SDS011;51027;42.162;24.754;2023-07-24T13:19:41;18.52;;;8.52;;
64615;SDS011;51027;42.162;24.754;2023-07-24T13:22:06;19.08;;;8.73;;
64615;SDS011;51027;42.162;24.754;2023-07-24T13:24:32;19.63;;;8.93;;
64615;SDS011;51027;42.162;24.754;2023-07-24T13:26:57;22.65;;;12.05;;
64615;SDS011;51027;42.162;24.754;2023-07-24T13:29:23;19.10;;;9.00;;
64615;SDS011;51027;42.162;24.754;2023-07-24T13:31:49;18.90;;;8.38;;
64615;SDS011;51027;42.162;24.754;2023-07-24T13:34:17;19.25;;;8.85;;
64615;SDS011;51027;42.162;24.754;2023-07-24T13:36:44;21.52;;;9.73;;
64615;SDS011;51027;42.162;24.754;2023-07-24T13:39:11;17.80;;;8.30;;
64615;SDS011;51027;42.162;24.754;2023-07-24T13:41:37;18.98;;;9.05;;
64615;SDS011;51027;42.162;24.754;2023-07-24T13:44:03;18.95;;;8.98;;
64615;SDS011;51027;42.162;24.754;2023-07-24T13:46:29;18.35;;;8.50;;
64615;SDS011;51027;42.162;24.754;2023-07-24T13:48:54;18.40;;;9.13;;
64615;SDS011;51027;42.162;24.754;2023-07-24T13:51:20;18.60;;;8.45;;
64615;SDS011;51027;42.162;24.754;2023-07-24T13:53:46;19.13;;;8.70;;
64615;SDS011;51027;42.162;24.754;2023-07-24T13:56:13;19.25;;;8.45;;
64615;SDS011;51027;42.162;24.754;2023-07-24T13:58:39;18.27;;;8.95;;
64615;SDS011;51027;42.162;24.754;2023-07-24T14:01:04;19.88;;;8.57;;
64615;SDS011;51027;42.162;24.754;2023-07-24T14:03:32;18.10;;;8.32;;
64615;SDS011;51027;42.162;24.754;2023-07-24T14:06:00;18.80;;;9.10;;
64615;SDS011;51027;42.162;24.754;2023-07-24T14:08:25;19.45;;;8.93;;
64615;SDS011;51027;42.162;24.754;2023-07-24T14:10:51;18.50;;;8.70;;
64615;SDS011;51027;42.162;24.754;2023-07-24T14:13:19;17.80;;;8.40;;
64615;SDS011;51027;42.162;24.754;2023-07-24T14:15:48;20.52;;;9.75;;
64615;SDS011;51027;42.162;24.754;2023-07-24T14:18:13;19.10;;;8.23;;
64615;SDS011;51027;42.162;24.754;2023-07-24T14:20:39;19.33;;;8.25;;
64615;SDS011;51027;42.162;24.754;2023-07-24T14:23:05;19.33;;;9.23;;
64615;SDS011;51027;42.162;24.754;2023-07-24T14:25:32;18.95;;;8.15;;
64615;SDS011;51027;42.162;24.754;2023-07-24T14:27:57;18.80;;;8.65;;
64615;SDS011;51027;42.162;24.754;2023-07-24T14:30:23;18.98;;;8.45;;
64615;SDS011;51027;42.162;24.754;2023-07-24T14:32:48;18.17;;;8.38;;
64615;SDS011;51027;42.162;24.754;2023-07-24T14:35:15;19.30;;;8.70;;
64615;SDS011;51027;42.162;24.754;2023-07-24T14:37:40;19.20;;;8.55;;
64615;SDS011;51027;42.162;24.754;2023-07-24T14:40:11;19.65;;;8.30;;
64615;SDS011;51027;42.162;24.754;2023-07-24T14:42:39;21.23;;;9.18;;
64615;SDS011;51027;42.162;24.754;2023-07-24T14:45:13;17.83;;;8.43;;
64615;SDS011;51027;42.162;24.754;2023-07-24T14:47:39;18.13;;;8.63;;
64615;SDS011;51027;42.162;24.754;2023-07-24T14:50:04;23.35;;;9.60;;
64615;SDS011;51027;42.162;24.754;2023-07-24T14:52:31;19.33;;;8.73;;
64615;SDS011;51027;42.162;24.754;2023-07-24T14:57:25;18.05;;;8.07;;
64615;SDS011;51027;42.162;24.754;2023-07-24T15:04:47;20.63;;;9.60;;
64615;SDS011;51027;42.162;24.754;2023-07-24T15:07:13;18.85;;;8.48;;
64615;SDS011;51027;42.162;24.754;2023-07-24T15:09:38;19.10;;;9.18;;
64615;SDS011;51027;42.162;24.754;2023-07-24T15:12:04;19.92;;;8.75;;
64615;SDS011;51027;42.162;24.754;2023-07-24T15:14:29;20.50;;;8.80;;
64615;SDS011;51027;42.162;24.754;2023-07-24T15:16:55;20.75;;;9.75;;
64615;SDS011;51027;42.162;24.754;2023-07-24T15:19:21;19.35;;;8.70;;
64615;SDS011;51027;42.162;24.754;2023-07-24T15:21:49;20.02;;;9.60;;
64615;SDS011;51027;42.162;24.754;2023-07-24T15:24:18;19.15;;;8.88;;
64615;SDS011;51027;42.162;24.754;2023-07-24T15:26:44;19.85;;;8.23;;
64615;SDS011;51027;42.162;24.754;2023-07-24T15:29:10;19.60;;;9.02;;
64615;SDS011;51027;42.162;24.754;2023-07-24T15:31:36;17.75;;;8.57;;
64615;SDS011;51027;42.162;24.754;2023-07-24T15:34:01;18.85;;;8.45;;
64615;SDS011;51027;42.162;24.754;2023-07-24T15:36:27;19.08;;;8.73;;
64615;SDS011;51027;42.162;24.754;2023-07-24T15:41:21;23.00;;;10.03;;
64615;SDS011;51027;42.162;24.754;2023-07-24T15:43:47;24.20;;;11.90;;
64615;SDS011;51027;42.162;24.754;2023-07-24T15:46:12;19.00;;;8.27;;
64615;SDS011;51027;42.162;24.754;2023-07-24T15:48:37;20.25;;;9.05;;
64615;SDS011;51027;42.162;24.754;2023-07-24T15:51:03;19.83;;;9.10;;
64615;SDS011;51027;42.162;24.754;2023-07-24T15:53:28;23.60;;;11.65;;
64615;SDS011;51027;42.162;24.754;2023-07-24T15:55:56;20.50;;;8.63;;
64615;SDS011;51027;42.162;24.754;2023-07-24T15:58:21;20.75;;;8.57;;
64615;SDS011;51027;42.162;24.754;2023-07-24T16:00:47;20.60;;;9.80;;
64615;SDS011;51027;42.162;24.754;2023-07-24T16:03:12;21.05;;;8.90;;
64615;SDS011;51027;42.162;24.754;2023-07-24T16:05:38;20.33;;;8.93;;
64615;SDS011;51027;42.162;24.754;2023-07-24T16:08:04;19.05;;;8.70;;
64615;SDS011;51027;42.162;24.754;2023-07-24T16:10:31;19.00;;;8.48;;
64615;SDS011;51027;42.162;24.754;2023-07-24T16:12:57;22.58;;;9.80;;
64615;SDS011;51027;42.162;24.754;2023-07-24T16:15:22;20.35;;;9.20;;
64615;SDS011;51027;42.162;24.754;2023-07-24T16:17:48;21.90;;;9.52;;
64615;SDS011;51027;42.162;24.754;2023-07-24T16:20:13;20.40;;;9.07;;
64615;SDS011;51027;42.162;24.754;2023-07-24T16:22:39;18.73;;;8.73;;
64615;SDS011;51027;42.162;24.754;2023-07-24T16:25:05;19.85;;;9.30;;
64615;SDS011;51027;42.162;24.754;2023-07-24T16:27:31;19.55;;;8.65;;
64615;SDS011;51027;42.162;24.754;2023-07-24T16:29:56;19.00;;;9.23;;
64615;SDS011;51027;42.162;24.754;2023-07-24T16:32:22;19.70;;;9.13;;
64615;SDS011;51027;42.162;24.754;2023-07-24T16:34:48;17.30;;;8.57;;
64615;SDS011;51027;42.162;24.754;2023-07-24T16:37:15;22.13;;;10.95;;
64615;SDS011;51027;42.162;24.754;2023-07-24T16:39:40;19.35;;;8.73;;
64615;SDS011;51027;42.162;24.754;2023-07-24T16:42:06;19.83;;;9.18;;
64615;SDS011;51027;42.162;24.754;2023-07-24T16:44:33;19.73;;;9.57;;
64615;SDS011;51027;42.162;24.754;2023-07-24T16:46:59;19.50;;;9.00;;
64615;SDS011;51027;42.162;24.754;2023-07-24T16:49:24;20.02;;;8.80;;
64615;SDS011;51027;42.162;24.754;2023-07-24T16:51:50;18.45;;;8.90;;
64615;SDS011;51027;42.162;24.754;2023-07-24T16:54:15;21.45;;;9.57;;
64615;SDS011;51027;42.162;24.754;2023-07-24T16:56:41;22.15;;;8.75;;
64615;SDS011;51027;42.162;24.754;2023-07-24T16:59:07;20.13;;;10.15;;
64615;SDS011;51027;42.162;24.754;2023-07-24T17:01:33;20.10;;;9.00;;
64615;SDS011;51027;42.162;24.754;2023-07-24T17:03:59;21.70;;;9.68;;
64615;SDS011;51027;42.162;24.754;2023-07-24T17:06:24;20.75;;;9.13;;
64615;SDS011;51027;42.162;24.754;2023-07-24T17:08:50;21.58;;;10.88;;
64615;SDS011;51027;42.162;24.754;2023-07-24T17:11:15;23.92;;;9.60;;
64615;SDS011;51027;42.162;24.754;2023-07-24T17:13:41;20.75;;;9.23;;
64615;SDS011;51027;42.162;24.754;2023-07-24T17:16:08;20.13;;;9.48;;
64615;SDS011;51027;42.162;24.754;2023-07-24T17:18:33;22.23;;;9.80;;
64615;SDS011;51027;42.162;24.754;2023-07-24T17:20:58;24.02;;;9.27;;
64615;SDS011;51027;42.162;24.754;2023-07-24T17:23:24;22.05;;;10.10;;
64615;SDS011;51027;42.162;24.754;2023-07-24T17:25:49;21.85;;;9.07;;
64615;SDS011;51027;42.162;24.754;2023-07-24T17:28:15;22.33;;;10.00;;
64615;SDS011;51027;42.162;24.754;2023-07-24T17:30:40;21.52;;;10.02;;
64615;SDS011;51027;42.162;24.754;2023-07-24T17:33:06;24.17;;;11.60;;
64615;SDS011;51027;42.162;24.754;2023-07-24T17:35:31;20.73;;;9.93;;
64615;SDS011;51027;42.162;24.754;2023-07-24T17:37:57;23.27;;;10.57;;
64615;SDS011;51027;42.162;24.754;2023-07-24T17:40:23;21.33;;;9.77;;
64615;SDS011;51027;42.162;24.754;2023-07-24T17:42:49;24.40;;;9.57;;
64615;SDS011;51027;42.162;24.754;2023-07-24T17:45:16;20.20;;;9.73;;
64615;SDS011;51027;42.162;24.754;2023-07-24T17:47:43;19.83;;;9.52;;
64615;SDS011;51027;42.162;24.754;2023-07-24T17:50:08;19.70;;;9.18;;
64615;SDS011;51027;42.162;24.754;2023-07-24T17:52:34;22.63;;;9.55;;